Time;durP1;ratioP1;P1;durP2;ratioP2;P2;SDS_P1;SDS_P2;PMS_P1;PMS_P2;Temp;Humidity;BMP_temperature;BMP_pressure;BME280_temperature;BME280_humidity;BME280_pressure;Samples;Min_cycle;Max_cycle;Signal;HPM_P1;HPM_P2
2023/08/01 00:01:58;;;;;;;4.40;3.90;;;20.20;83.20;;;;;;5054190;28;20162;-85
2023/08/01 00:04:24;;;;;;;3.85;3.55;;;20.20;83.20;;;;;;5055269;28;20161;-85
2023/08/01 00:06:50;;;;;;;4.50;4.00;;;20.20;83.20;;;;;;5053940;28;20200;-86
2023/08/01 00:09:15;;;;;;;4.22;3.83;;;20.20;83.20;;;;;;5070775;28;20162;-84
2023/08/01 00:11:41;;;;;;;4.10;3.70;;;20.30;83.20;;;;;;5054099;28;20609;-87
2023/08/01 00:14:11;;;;;;;4.65;3.90;;;20.20;83.20;;;;;;5053800;28;20189;-86
2023/08/01 00:16:37;;;;;;;4.57;4.15;;;20.20;83.20;;;;;;5053130;28;20518;-83
2023/08/01 00:19:03;;;;;;;4.38;3.97;;;20.20;83.20;;;;;;5053826;28;20161;-86
2023/08/01 00:21:31;;;;;;;5.25;3.80;;;20.20;83.20;;;;;;5053650;28;20240;-86
2023/08/01 00:23:57;;;;;;;4.35;3.95;;;20.20;83.20;;;;;;5054237;28;20161;-86
2023/08/01 00:26:23;;;;;;;4.32;3.92;;;20.20;83.20;;;;;;5053955;28;20216;-86
2023/08/01 00:28:49;;;;;;;4.60;4.10;;;20.20;83.10;;;;;;5070765;28;20563;-85
2023/08/01 00:31:15;;;;;;;4.38;3.97;;;20.20;83.10;;;;;;5054764;28;20635;-84
2023/08/01 00:33:41;;;;;;;5.07;4.57;;;20.20;83.00;;;;;;5054778;28;20154;-86
2023/08/01 00:36:09;;;;;;;4.22;3.83;;;20.20;83.00;;;;;;5070390;28;20172;-85
2023/08/01 00:38:36;;;;;;;4.45;4.00;;;20.20;83.00;;;;;;5053617;28;20166;-86
2023/08/01 00:41:02;;;;;;;4.45;4.05;;;20.20;83.00;;;;;;5053429;28;20166;-86
2023/08/01 00:43:32;;;;;;;4.43;4.03;;;20.30;83.10;;;;;;5054546;28;20158;-88
2023/08/01 00:46:00;;;;;;;4.82;4.32;;;20.20;83.10;;;;;;5086220;28;20250;-85
2023/08/01 00:48:26;;;;;;;4.47;4.07;;;20.20;83.20;;;;;;5053225;28;20146;-84
2023/08/01 00:50:52;;;;;;;4.32;3.92;;;20.30;83.20;;;;;;5053363;28;20299;-84
2023/08/01 00:53:18;;;;;;;4.68;4.28;;;20.20;83.00;;;;;;5053005;28;20181;-86
2023/08/01 00:55:44;;;;;;;4.55;4.15;;;20.20;83.10;;;;;;5052891;28;20256;-84
2023/08/01 00:58:10;;;;;;;4.70;4.20;;;20.20;83.20;;;;;;5053120;28;20177;-86
2023/08/01 01:00:36;;;;;;;4.35;3.95;;;20.20;83.10;;;;;;5069634;28;20170;-86
2023/08/01 01:03:02;;;;;;;4.40;4.00;;;20.20;83.00;;;;;;5052832;28;20173;-84
2023/08/01 01:05:32;;;;;;;4.75;4.25;;;20.20;83.00;;;;;;5053944;28;20166;-84
2023/08/01 01:07:58;;;;;;;4.13;3.72;;;20.20;83.00;;;;;;5069332;28;20220;-85
2023/08/01 01:10:24;;;;;;;4.20;3.80;;;20.20;83.00;;;;;;5053891;28;20587;-84
2023/08/01 01:12:50;;;;;;;4.15;3.75;;;20.20;83.00;;;;;;5036716;28;20265;-87
2023/08/01 01:15:20;;;;;;;4.75;3.97;;;20.20;83.20;;;;;;5052599;28;20652;-86
2023/08/01 01:17:46;;;;;;;4.20;3.80;;;20.20;83.10;;;;;;5085647;28;20182;-83
2023/08/01 01:20:12;;;;;;;4.85;3.83;;;20.20;83.00;;;;;;5053784;28;20162;-86
2023/08/01 01:22:38;;;;;;;4.18;3.70;;;20.10;83.00;;;;;;5052652;28;20174;-84
2023/08/01 01:25:05;;;;;;;4.10;3.70;;;20.20;83.00;;;;;;5053336;28;20165;-85
2023/08/01 01:27:31;;;;;;;4.13;3.72;;;20.20;82.90;;;;;;5053606;28;20149;-85
2023/08/01 01:29:56;;;;;;;4.20;3.78;;;20.20;82.90;;;;;;5053732;28;20158;-87
2023/08/01 01:32:22;;;;;;;4.20;3.80;;;20.20;82.90;;;;;;5068892;28;20174;-85
2023/08/01 01:34:48;;;;;;;4.10;3.70;;;20.20;82.90;;;;;;5052782;28;20197;-85
2023/08/01 01:37:18;;;;;;;4.40;4.00;;;20.20;83.00;;;;;;5052377;28;20647;-87
2023/08/01 01:39:44;;;;;;;5.55;4.50;;;20.20;83.00;;;;;;5051665;28;20181;-86
2023/08/01 01:42:12;;;;;;;3.90;3.55;;;20.20;82.90;;;;;;5052319;28;20154;-85
2023/08/01 01:44:39;;;;;;;4.10;3.70;;;20.20;82.90;;;;;;5052213;28;20162;-84
2023/08/01 01:47:05;;;;;;;3.70;3.40;;;20.20;83.00;;;;;;5052467;28;20158;-88
2023/08/01 01:49:31;;;;;;;4.07;3.67;;;20.20;82.90;;;;;;5052403;28;20249;-85
2023/08/01 01:51:57;;;;;;;4.22;3.83;;;20.20;82.90;;;;;;5052072;28;20238;-84
2023/08/01 01:54:23;;;;;;;4.38;3.97;;;20.20;82.90;;;;;;5053246;28;20273;-83
2023/08/01 01:56:49;;;;;;;4.10;3.70;;;20.10;82.90;;;;;;5052180;28;20154;-84
2023/08/01 01:59:14;;;;;;;3.95;3.55;;;20.20;83.70;;;;;;5052390;28;20248;-86
2023/08/01 02:01:40;;;;;;;4.03;3.70;;;20.20;82.80;;;;;;5053229;28;20578;-83
2023/08/01 02:04:06;;;;;;;3.63;3.33;;;20.20;82.90;;;;;;5053122;28;20168;-86
2023/08/01 02:06:32;;;;;;;4.25;3.85;;;20.20;82.80;;;;;;5069385;28;20162;-86
2023/08/01 02:08:58;;;;;;;4.00;3.60;;;20.20;82.80;;;;;;5052001;28;20162;-86
2023/08/01 02:11:29;;;;;;;4.30;3.90;;;20.20;82.80;;;;;;5052941;28;20289;-85
2023/08/01 02:13:55;;;;;;;4.20;3.80;;;20.20;82.80;;;;;;5067922;28;20301;-87
2023/08/01 02:16:21;;;;;;;4.07;3.67;;;20.20;82.70;;;;;;5053430;28;20154;-88
2023/08/01 02:18:47;;;;;;;4.22;3.83;;;20.20;82.70;;;;;;5052933;28;20158;-84
2023/08/01 02:21:13;;;;;;;4.10;3.70;;;20.20;82.70;;;;;;5052066;28;20609;-84
2023/08/01 02:23:42;;;;;;;3.97;3.58;;;20.20;82.70;;;;;;5051757;28;20594;-87
2023/08/01 02:26:08;;;;;;;3.97;3.67;;;20.20;82.70;;;;;;5067911;28;20186;-86
2023/08/01 02:28:34;;;;;;;4.80;3.90;;;20.20;82.80;;;;;;5051803;28;20577;-84
2023/08/01 02:31:04;;;;;;;3.78;3.47;;;20.20;82.90;;;;;;5052006;28;20684;-83
2023/08/01 02:33:30;;;;;;;4.13;3.72;;;20.20;82.80;;;;;;5084625;28;20189;-87
2023/08/01 02:35:56;;;;;;;4.07;3.67;;;20.20;82.80;;;;;;5068609;28;20202;-84
2023/08/01 02:38:22;;;;;;;4.20;3.80;;;20.20;82.80;;;;;;5052834;28;20241;-83
2023/08/01 02:40:48;;;;;;;4.75;3.78;;;20.20;82.80;;;;;;5051663;28;20347;-85
2023/08/01 02:43:14;;;;;;;4.20;3.63;;;20.20;82.60;;;;;;5051656;28;20154;-86
2023/08/01 02:45:42;;;;;;;4.20;3.53;;;20.20;82.60;;;;;;5068590;28;20253;-83
2023/08/01 02:48:07;;;;;;;4.22;3.83;;;20.20;82.60;;;;;;5054534;28;20197;-83
2023/08/01 02:50:33;;;;;;;3.88;3.50;;;20.20;82.60;;;;;;5055617;28;20154;-84
2023/08/01 02:52:59;;;;;;;4.13;3.72;;;20.20;82.70;;;;;;5071949;28;20151;-86
2023/08/01 02:55:25;;;;;;;4.20;3.80;;;20.10;82.60;;;;;;5055399;28;20206;-84
2023/08/01 02:57:51;;;;;;;4.00;3.28;;;20.20;82.80;;;;;;5071925;28;20185;-84
2023/08/01 03:00:17;;;;;;;3.83;3.42;;;20.10;82.80;;;;;;5056541;28;20523;-87
2023/08/01 03:02:43;;;;;;;3.88;3.47;;;20.20;82.80;;;;;;5055315;28;20617;-86
2023/08/01 03:05:09;;;;;;;4.10;3.70;;;20.10;82.70;;;;;;5055405;28;20625;-83
2023/08/01 03:07:35;;;;;;;3.92;3.53;;;20.20;82.70;;;;;;5056488;28;20255;-86
2023/08/01 03:10:01;;;;;;;3.90;3.58;;;20.10;82.70;;;;;;5056076;28;20685;-85
2023/08/01 03:12:27;;;;;;;4.30;3.90;;;20.20;82.60;;;;;;5055205;28;20173;-84
2023/08/01 03:14:57;;;;;;;3.78;3.40;;;20.20;82.60;;;;;;5054912;28;20219;-85
2023/08/01 03:17:23;;;;;;;3.92;3.50;;;20.20;82.60;;;;;;5054345;28;20178;-84
2023/08/01 03:19:49;;;;;;;4.05;3.65;;;20.20;82.60;;;;;;5054944;28;20154;-83
2023/08/01 03:22:15;;;;;;;3.97;3.58;;;20.20;82.50;;;;;;5054844;28;20166;-87
2023/08/01 03:24:41;;;;;;;3.63;3.33;;;20.20;82.40;;;;;;5056050;28;20158;-85
2023/08/01 03:27:07;;;;;;;4.25;3.60;;;20.20;82.40;;;;;;5054807;28;20181;-85
2023/08/01 03:29:32;;;;;;;4.28;3.70;;;20.20;82.50;;;;;;5054666;28;20170;-84
2023/08/01 03:31:58;;;;;;;4.60;3.70;;;20.20;82.60;;;;;;5055927;28;20216;-86
2023/08/01 03:34:26;;;;;;;4.20;3.80;;;20.20;82.50;;;;;;5054504;28;20204;-86
2023/08/01 03:36:52;;;;;;;4.00;3.60;;;20.20;82.50;;;;;;5055754;28;20150;-86
2023/08/01 03:39:20;;;;;;;3.83;3.45;;;20.20;82.60;;;;;;5071381;28;20205;-84
2023/08/01 03:41:45;;;;;;;3.90;3.60;;;20.20;82.60;;;;;;5055098;28;20166;-88
2023/08/01 03:44:12;;;;;;;4.00;3.50;;;20.10;82.40;;;;;;5055536;28;20155;-85
2023/08/01 03:46:42;;;;;;;4.22;3.83;;;20.20;82.40;;;;;;5054605;28;20177;-85
2023/08/01 03:49:09;;;;;;;3.70;3.40;;;20.10;82.40;;;;;;5053737;28;20182;-87
2023/08/01 03:51:35;;;;;;;4.28;3.88;;;20.20;82.40;;;;;;5070935;28;20174;-83
2023/08/01 03:54:01;;;;;;;3.63;3.33;;;20.10;82.50;;;;;;5054513;28;20201;-84
2023/08/01 03:56:30;;;;;;;4.00;3.60;;;20.10;82.50;;;;;;5070881;28;20536;-84
2023/08/01 03:58:56;;;;;;;3.80;3.42;;;20.10;82.50;;;;;;5086933;28;20633;-85
2023/08/01 04:01:22;;;;;;;3.65;3.25;;;20.20;82.50;;;;;;5054204;28;20162;-86
2023/08/01 04:03:48;;;;;;;4.07;3.65;;;20.10;82.40;;;;;;5070727;28;20201;-86
2023/08/01 04:06:15;;;;;;;3.55;3.25;;;20.20;82.30;;;;;;5070736;28;20166;-86
2023/08/01 04:08:41;;;;;;;3.80;3.50;;;20.20;82.40;;;;;;5070679;28;20220;-86
2023/08/01 04:11:07;;;;;;;4.00;3.55;;;20.10;82.30;;;;;;5053630;28;20229;-87
2023/08/01 04:13:33;;;;;;;3.80;3.50;;;20.20;82.20;;;;;;5053997;28;20150;-88
2023/08/01 04:15:58;;;;;;;3.90;3.50;;;20.20;82.30;;;;;;5053755;28;20221;-85
2023/08/01 04:18:24;;;;;;;3.58;3.28;;;20.20;82.30;;;;;;5053853;28;20158;-85
2023/08/01 04:20:50;;;;;;;3.97;3.58;;;20.20;82.30;;;;;;5055327;28;20158;-83
2023/08/01 04:23:16;;;;;;;3.85;3.47;;;20.20;82.30;;;;;;5053702;28;20161;-84
2023/08/01 04:25:42;;;;;;;3.60;3.30;;;20.20;82.30;;;;;;5055271;28;20211;-84
2023/08/01 04:28:08;;;;;;;3.67;3.30;;;20.20;82.30;;;;;;5053650;28;20208;-84
2023/08/01 04:30:34;;;;;;;3.88;3.47;;;20.20;82.10;;;;;;5053650;28;20213;-86
2023/08/01 04:33:00;;;;;;;3.70;3.30;;;20.20;82.20;;;;;;5053559;28;20203;-84
2023/08/01 04:35:26;;;;;;;3.70;3.40;;;20.20;82.10;;;;;;5053335;28;20194;-84
2023/08/01 04:37:52;;;;;;;3.50;3.17;;;20.10;82.00;;;;;;5053566;28;20162;-86
2023/08/01 04:40:18;;;;;;;3.60;3.30;;;20.20;82.00;;;;;;5053370;28;20169;-87
2023/08/01 04:42:44;;;;;;;3.60;3.30;;;20.30;81.90;;;;;;5070764;28;20158;-85
2023/08/01 04:45:14;;;;;;;3.50;3.10;;;20.30;81.80;;;;;;5053374;28;20264;-86
2023/08/01 04:47:40;;;;;;;4.00;3.60;;;20.30;81.70;;;;;;5052980;28;20193;-84
2023/08/01 04:50:06;;;;;;;3.80;3.30;;;20.30;81.60;;;;;;5070251;28;20166;-86
2023/08/01 04:52:32;;;;;;;4.13;3.03;;;20.20;81.40;;;;;;5054329;28;20672;-85
2023/08/01 04:55:03;;;;;;;3.85;3.45;;;20.30;81.40;;;;;;5053016;28;20272;-85
2023/08/01 04:57:29;;;;;;;3.83;3.53;;;20.40;81.50;;;;;;5052557;28;20284;-88
2023/08/01 04:59:55;;;;;;;3.78;3.38;;;20.30;81.40;;;;;;5053341;28;20158;-85
2023/08/01 05:02:21;;;;;;;4.00;3.22;;;20.30;81.40;;;;;;5053014;28;20157;-85
2023/08/01 05:04:46;;;;;;;3.60;3.30;;;20.30;81.30;;;;;;5052894;28;20158;-85
2023/08/01 05:07:12;;;;;;;3.58;3.20;;;20.30;81.20;;;;;;5052975;28;20154;-88
2023/08/01 05:09:38;;;;;;;3.75;3.45;;;20.40;81.30;;;;;;5051769;28;20234;-85
2023/08/01 05:12:04;;;;;;;3.50;3.20;;;20.40;81.10;;;;;;5069409;28;20223;-85
2023/08/01 05:14:30;;;;;;;3.78;3.40;;;20.40;81.00;;;;;;5069222;28;20260;-86
2023/08/01 05:17:00;;;;;;;3.60;3.30;;;20.40;80.90;;;;;;5052605;28;20208;-84
2023/08/01 05:19:26;;;;;;;3.92;3.53;;;20.40;81.00;;;;;;5052200;28;20182;-84
2023/08/01 05:21:52;;;;;;;3.80;3.45;;;20.40;80.90;;;;;;5070021;28;20563;-84
2023/08/01 05:24:18;;;;;;;3.85;3.50;;;20.40;80.80;;;;;;5052590;28;20169;-83
2023/08/01 05:26:44;;;;;;;3.40;3.10;;;20.40;80.70;;;;;;5054161;28;20155;-83
2023/08/01 05:29:10;;;;;;;3.72;3.42;;;20.40;80.70;;;;;;5052447;28;20161;-85
2023/08/01 05:31:36;;;;;;;3.45;3.15;;;20.50;80.70;;;;;;5053828;28;20493;-85
2023/08/01 05:34:01;;;;;;;3.50;3.20;;;20.40;80.70;;;;;;5052336;28;20197;-89
2023/08/01 05:36:27;;;;;;;3.55;3.25;;;20.40;80.70;;;;;;5068957;28;20587;-85
2023/08/01 05:38:57;;;;;;;3.45;3.15;;;20.50;80.50;;;;;;5052305;28;20166;-86
2023/08/01 05:41:23;;;;;;;3.47;3.20;;;20.50;80.50;;;;;;5051755;28;20178;-86
2023/08/01 05:43:53;;;;;;;3.45;3.10;;;20.40;80.70;;;;;;5053678;28;20517;-85
2023/08/01 05:46:19;;;;;;;3.15;2.90;;;20.40;80.90;;;;;;5051850;28;20186;-89
2023/08/01 05:48:45;;;;;;;3.10;2.80;;;20.40;80.90;;;;;;5052225;28;20172;-87
2023/08/01 05:51:10;;;;;;;3.15;2.85;;;20.40;80.90;;;;;;5052660;28;20208;-88
2023/08/01 05:53:36;;;;;;;3.30;3.00;;;20.40;80.80;;;;;;5052056;28;20150;-86
2023/08/01 05:56:04;;;;;;;3.15;2.85;;;20.40;80.90;;;;;;5052324;28;20201;-87
2023/08/01 05:58:30;;;;;;;2.60;2.40;;;20.40;81.00;;;;;;5053425;28;20167;-85
2023/08/01 06:00:56;;;;;;;3.00;2.70;;;20.40;80.90;;;;;;5052368;28;20158;-86
2023/08/01 06:03:22;;;;;;;3.00;2.80;;;20.40;81.00;;;;;;5068690;28;20184;-87
2023/08/01 06:05:49;;;;;;;3.22;2.92;;;20.40;81.70;;;;;;5052380;28;20241;-87
2023/08/01 06:08:15;;;;;;;3.00;2.70;;;20.50;80.70;;;;;;5052060;28;20233;-87
2023/08/01 06:10:41;;;;;;;2.80;2.50;;;20.50;80.60;;;;;;5051957;28;20217;-87
2023/08/01 06:13:07;;;;;;;2.80;2.55;;;20.50;80.70;;;;;;5051893;28;20161;-86
2023/08/01 06:15:33;;;;;;;2.58;2.35;;;20.50;80.80;;;;;;5051771;28;20200;-89
2023/08/01 06:17:59;;;;;;;2.88;2.67;;;20.30;80.80;;;;;;5051948;28;20257;-87
2023/08/01 06:20:25;;;;;;;2.60;2.40;;;20.30;81.00;;;;;;5051806;28;20157;-86
2023/08/01 06:22:51;;;;;;;2.58;2.25;;;20.30;81.20;;;;;;5055783;28;20570;-86
2023/08/01 06:25:17;;;;;;;2.83;2.63;;;20.30;81.30;;;;;;5057152;28;20158;-88
2023/08/01 06:27:43;;;;;;;2.90;2.70;;;20.30;81.20;;;;;;5055782;28;20248;-87
2023/08/01 06:30:10;;;;;;;3.00;2.70;;;20.30;81.20;;;;;;5055891;28;20233;-85
2023/08/01 06:32:36;;;;;;;2.58;2.38;;;20.30;81.30;;;;;;5055745;28;20158;-86
2023/08/01 06:35:02;;;;;;;2.70;2.50;;;20.30;81.40;;;;;;5056037;28;20688;-87
2023/08/01 06:37:28;;;;;;;2.65;2.45;;;20.30;81.40;;;;;;5056994;28;20154;-87
2023/08/01 06:39:55;;;;;;;2.90;2.58;;;20.20;81.40;;;;;;5055987;28;20627;-87
2023/08/01 06:42:21;;;;;;;2.63;2.42;;;20.20;81.40;;;;;;5055531;28;20162;-85
2023/08/01 06:44:47;;;;;;;2.60;2.40;;;20.20;81.40;;;;;;5072513;28;20247;-85
2023/08/01 06:47:13;;;;;;;2.70;2.50;;;20.30;81.50;;;;;;5056679;28;20233;-87
2023/08/01 06:49:39;;;;;;;2.50;2.30;;;20.20;82.30;;;;;;5055980;28;20189;-84
2023/08/01 06:52:06;;;;;;;2.50;2.30;;;20.20;81.40;;;;;;5055485;28;20629;-85
2023/08/01 06:54:32;;;;;;;2.58;2.33;;;20.20;81.50;;;;;;5056473;28;20193;-85
2023/08/01 06:56:59;;;;;;;2.47;2.28;;;20.20;81.60;;;;;;5055368;28;20178;-87
2023/08/01 06:59:25;;;;;;;2.30;2.10;;;20.20;81.60;;;;;;5055307;28;20174;-86
2023/08/01 07:01:51;;;;;;;2.42;2.22;;;20.20;81.70;;;;;;5056374;28;20601;-84
2023/08/01 07:04:17;;;;;;;2.30;2.10;;;20.20;81.80;;;;;;5055235;28;20617;-86
2023/08/01 07:06:43;;;;;;;2.40;2.20;;;20.20;81.80;;;;;;5056504;28;20648;-86
2023/08/01 07:09:10;;;;;;;2.55;2.35;;;20.20;81.90;;;;;;5071509;28;20166;-88
2023/08/01 07:11:36;;;;;;;2.40;2.20;;;20.20;82.00;;;;;;5055848;28;20166;-86
2023/08/01 07:14:02;;;;;;;2.72;2.53;;;20.20;81.90;;;;;;5054961;28;20613;-86
2023/08/01 07:16:27;;;;;;;2.40;2.20;;;20.20;82.00;;;;;;5055013;28;20167;-86
2023/08/01 07:18:59;;;;;;;2.30;2.10;;;20.20;82.00;;;;;;5055757;28;20162;-86
2023/08/01 07:21:25;;;;;;;2.83;2.40;;;20.20;82.10;;;;;;5071053;28;20188;-89
2023/08/01 07:23:51;;;;;;;2.70;2.50;;;20.10;82.10;;;;;;5056463;28;20158;-86
2023/08/01 07:26:17;;;;;;;2.72;2.53;;;20.10;82.10;;;;;;5054750;28;20192;-89
2023/08/01 07:28:43;;;;;;;2.38;2.17;;;20.10;82.10;;;;;;5055172;28;20150;-87
2023/08/01 07:31:09;;;;;;;2.42;2.22;;;20.20;82.20;;;;;;5054777;28;20580;-85
2023/08/01 07:33:35;;;;;;;2.65;2.45;;;20.10;82.10;;;;;;5054085;28;20518;-84
2023/08/01 07:36:01;;;;;;;2.50;2.30;;;20.10;82.10;;;;;;5055078;28;20222;-87
2023/08/01 07:38:27;;;;;;;2.60;2.40;;;20.10;82.20;;;;;;5054691;28;20190;-85
2023/08/01 07:40:55;;;;;;;2.53;2.33;;;20.10;82.20;;;;;;5054761;28;20215;-86
2023/08/01 07:43:21;;;;;;;2.55;2.35;;;20.20;82.30;;;;;;5055769;28;20162;-85
2023/08/01 07:45:50;;;;;;;3.00;2.70;;;20.20;82.10;;;;;;5054574;28;20162;-85
2023/08/01 07:48:16;;;;;;;2.65;2.45;;;20.20;82.10;;;;;;5054417;28;20223;-85
2023/08/01 07:50:42;;;;;;;2.70;2.50;;;20.30;82.30;;;;;;5054448;28;20158;-86
2023/08/01 07:53:08;;;;;;;2.95;2.70;;;20.20;82.20;;;;;;5056012;28;20525;-87
2023/08/01 07:55:34;;;;;;;2.50;2.30;;;20.20;82.10;;;;;;5054818;28;20198;-85
2023/08/01 07:58:01;;;;;;;2.83;2.60;;;20.20;82.10;;;;;;5054279;28;20165;-85
2023/08/01 08:00:26;;;;;;;2.97;2.67;;;20.20;82.20;;;;;;5055511;28;20158;-86
2023/08/01 08:02:56;;;;;;;2.55;2.35;;;20.20;82.20;;;;;;5054326;28;20628;-87
2023/08/01 08:05:22;;;;;;;2.80;2.60;;;20.30;82.10;;;;;;5070251;28;20182;-86
2023/08/01 08:07:48;;;;;;;2.55;2.35;;;20.30;81.90;;;;;;5054160;28;20158;-84
2023/08/01 08:10:14;;;;;;;2.58;2.38;;;20.30;81.70;;;;;;5055128;28;20264;-87
2023/08/01 08:12:40;;;;;;;2.50;2.30;;;20.30;81.40;;;;;;5053823;28;20529;-86
2023/08/01 08:15:07;;;;;;;2.58;2.38;;;20.30;81.20;;;;;;5054532;28;20198;-85
2023/08/01 08:17:33;;;;;;;2.75;2.47;;;20.40;81.20;;;;;;5071346;28;20166;-86
2023/08/01 08:19:59;;;;;;;3.10;2.80;;;20.40;81.10;;;;;;5054112;28;20166;-88
2023/08/01 08:22:25;;;;;;;2.90;2.70;;;20.30;81.20;;;;;;5055181;28;20154;-87
2023/08/01 08:24:51;;;;;;;2.83;2.63;;;20.30;81.20;;;;;;5055013;28;20158;-86
2023/08/01 08:27:16;;;;;;;2.78;2.47;;;20.30;81.30;;;;;;5053716;28;20151;-86
2023/08/01 08:29:42;;;;;;;2.55;2.35;;;20.30;81.20;;;;;;5055067;28;20279;-86
2023/08/01 08:32:08;;;;;;;2.85;2.55;;;20.30;81.10;;;;;;5054816;28;20488;-86
2023/08/01 08:34:34;;;;;;;2.55;2.35;;;20.30;81.00;;;;;;5054621;28;20190;-85
2023/08/01 08:37:00;;;;;;;2.70;2.50;;;20.40;81.00;;;;;;5069934;28;20162;-85
2023/08/01 08:39:26;;;;;;;2.42;2.22;;;20.40;80.90;;;;;;5054554;28;20153;-85
2023/08/01 08:41:53;;;;;;;2.55;2.35;;;20.50;80.80;;;;;;5073474;28;20166;-85
2023/08/01 08:44:20;;;;;;;2.50;2.30;;;20.50;80.80;;;;;;5073241;28;20236;-85
2023/08/01 08:46:53;;;;;;;2.40;2.20;;;20.40;80.70;;;;;;5076400;28;20250;-85
2023/08/01 08:49:21;;;;;;;2.80;2.50;;;20.50;80.70;;;;;;5041048;28;20181;-86
2023/08/01 08:51:48;;;;;;;2.50;2.30;;;20.50;80.70;;;;;;5074764;28;20153;-84
2023/08/01 08:54:15;;;;;;;2.67;2.47;;;20.50;80.40;;;;;;5058206;28;20205;-87
2023/08/01 08:56:41;;;;;;;2.50;2.30;;;20.50;80.30;;;;;;5060876;28;20605;-86
2023/08/01 08:59:20;;;;;;;2.60;2.40;;;20.50;80.00;;;;;;5077748;28;20160;-85
2023/08/01 09:02:01;;;;;;;2.22;2.03;;;20.50;80.10;;;;;;5040642;28;20276;-85
2023/08/01 09:04:45;;;;;;;2.72;2.53;;;20.50;80.00;;;;;;5059014;28;20211;-85
2023/08/01 09:07:11;;;;;;;2.70;2.50;;;20.50;80.00;;;;;;5040882;28;20552;-84
2023/08/01 09:09:37;;;;;;;2.67;2.47;;;20.50;80.10;;;;;;5074136;28;20246;-85
2023/08/01 09:12:11;;;;;;;2.50;2.30;;;20.50;80.00;;;;;;5073831;28;20222;-86
2023/08/01 09:14:44;;;;;;;2.80;2.60;;;20.50;79.80;;;;;;5039640;28;20213;-84
2023/08/01 09:17:18;;;;;;;2.67;2.42;;;20.50;79.90;;;;;;5057096;28;20650;-87
2023/08/01 09:19:55;;;;;;;3.40;2.67;;;20.50;79.70;;;;;;5040027;28;20542;-84
2023/08/01 09:22:20;;;;;;;2.88;2.67;;;20.50;79.60;;;;;;5072395;28;20188;-84
2023/08/01 09:24:53;;;;;;;2.70;2.30;;;20.50;79.50;;;;;;5055041;28;20551;-87
2023/08/01 09:27:21;;;;;;;2.70;2.50;;;20.50;79.40;;;;;;5064910;28;20161;-84
2023/08/01 09:29:49;;;;;;;3.33;2.88;;;20.50;79.20;;;;;;5062190;28;20169;-85
2023/08/01 09:32:15;;;;;;;2.50;2.30;;;20.50;79.10;;;;;;5075675;28;20185;-85
2023/08/01 09:34:43;;;;;;;3.78;2.53;;;20.50;79.00;;;;;;5053376;28;20190;-86
2023/08/01 09:37:09;;;;;;;2.35;2.15;;;20.50;78.90;;;;;;5036710;28;20214;-85
2023/08/01 09:39:35;;;;;;;2.38;2.17;;;20.50;78.10;;;;;;5043790;28;20184;-86
2023/08/01 09:42:01;;;;;;;2.53;2.33;;;20.60;77.70;;;;;;5091665;28;20149;-86
2023/08/01 09:44:28;;;;;;;2.67;2.47;;;20.60;77.50;;;;;;5076374;28;20240;-86
2023/08/01 09:46:59;;;;;;;2.42;2.22;;;20.60;77.30;;;;;;5076404;28;20599;-86
2023/08/01 09:49:25;;;;;;;2.45;2.25;;;20.60;77.30;;;;;;5095740;28;20170;-88
2023/08/01 09:51:50;;;;;;;3.50;2.45;;;20.60;77.40;;;;;;5094734;28;20236;-85
2023/08/01 09:54:17;;;;;;;3.50;2.40;;;20.60;77.30;;;;;;5093284;28;20181;-85
2023/08/01 09:56:45;;;;;;;3.65;2.47;;;20.70;77.10;;;;;;5094893;28;20156;-84
2023/08/01 09:59:10;;;;;;;2.75;2.22;;;20.70;77.10;;;;;;5065229;28;20178;-84
2023/08/01 10:01:36;;;;;;;3.10;2.20;;;20.70;76.90;;;;;;5070270;28;20158;-87
2023/08/01 10:04:02;;;;;;;2.97;2.70;;;20.70;76.50;;;;;;5119899;27;20164;-86
2023/08/01 10:06:30;;;;;;;5.13;2.60;;;20.70;76.40;;;;;;5068595;28;20162;-85
2023/08/01 10:08:56;;;;;;;2.60;2.40;;;20.70;76.60;;;;;;5035941;28;20162;-85
2023/08/01 10:11:22;;;;;;;2.78;2.30;;;20.70;76.30;;;;;;5051880;28;20847;-85
2023/08/01 10:13:48;;;;;;;2.50;2.20;;;20.70;76.40;;;;;;5066337;28;20208;-85
2023/08/01 10:16:14;;;;;;;3.33;2.25;;;20.70;76.20;;;;;;5065205;28;20231;-85
2023/08/01 10:18:40;;;;;;;4.32;2.63;;;20.70;76.10;;;;;;5036235;28;20178;-88
2023/08/01 10:21:08;;;;;;;2.75;2.40;;;20.70;75.90;;;;;;5039894;28;20195;-84
2023/08/01 10:23:34;;;;;;;2.42;2.22;;;20.70;75.70;;;;;;5055959;28;20169;-87
2023/08/01 10:26:00;;;;;;;6.15;2.47;;;20.70;75.80;;;;;;5071588;28;20185;-85
2023/08/01 10:28:35;;;;;;;2.63;2.03;;;20.70;75.70;;;;;;5056336;28;20620;-84
2023/08/01 10:31:15;;;;;;;2.70;2.50;;;20.80;75.60;;;;;;5058167;28;20168;-84
2023/08/01 10:33:43;;;;;;;3.50;2.22;;;20.80;75.60;;;;;;5041625;28;20188;-84
2023/08/01 10:36:18;;;;;;;2.20;2.00;;;20.80;76.00;;;;;;5059490;28;20322;-85
2023/08/01 10:38:48;;;;;;;3.30;2.42;;;20.80;75.10;;;;;;5074883;28;20153;-86
2023/08/01 10:41:27;;;;;;;2.47;2.28;;;20.80;74.90;;;;;;5056164;28;20248;-86
2023/08/01 10:44:07;;;;;;;2.60;2.38;;;20.80;74.90;;;;;;5056057;28;20621;-85
2023/08/01 10:46:48;;;;;;;3.55;2.25;;;20.80;74.70;;;;;;5056601;28;20347;-85
2023/08/01 10:49:14;;;;;;;2.97;2.30;;;20.80;74.90;;;;;;5073161;28;20177;-87
2023/08/01 10:51:40;;;;;;;3.55;2.20;;;20.80;74.90;;;;;;5056508;28;20178;-86
2023/08/01 10:54:07;;;;;;;2.50;2.30;;;20.80;74.80;;;;;;5068831;28;20515;-85
2023/08/01 10:56:34;;;;;;;3.78;2.20;;;20.80;74.50;;;;;;5086011;28;20196;-88
2023/08/01 10:59:00;;;;;;;3.28;2.42;;;20.90;74.70;;;;;;5067499;28;20211;-85
2023/08/01 11:01:28;;;;;;;3.75;2.50;;;20.90;74.70;;;;;;5054793;28;20624;-85
2023/08/01 11:03:54;;;;;;;2.13;1.92;;;20.80;74.40;;;;;;5071468;28;20238;-84
2023/08/01 11:06:20;;;;;;;2.40;2.20;;;20.90;74.20;;;;;;5051958;28;20580;-85
2023/08/01 11:08:46;;;;;;;2.38;2.13;;;20.80;74.00;;;;;;5053503;28;20231;-84
2023/08/01 11:11:13;;;;;;;2.33;2.13;;;20.90;73.80;;;;;;5088659;28;20217;-86
2023/08/01 11:13:39;;;;;;;2.45;2.20;;;20.80;73.80;;;;;;5056741;28;20661;-85
2023/08/01 11:16:06;;;;;;;2.40;2.20;;;20.80;73.70;;;;;;5058832;28;20295;-85
2023/08/01 11:18:47;;;;;;;2.67;2.05;;;20.90;73.60;;;;;;5075413;28;20153;-84
2023/08/01 11:21:14;;;;;;;2.75;2.40;;;20.90;73.50;;;;;;5076000;28;20605;-85
2023/08/01 11:23:40;;;;;;;2.50;2.30;;;20.90;73.40;;;;;;5041939;28;20591;-86
2023/08/01 11:26:08;;;;;;;3.70;2.30;;;20.80;73.40;;;;;;5038685;28;20257;-85
2023/08/01 11:28:35;;;;;;;3.38;2.17;;;20.90;73.40;;;;;;5055026;28;20237;-85
2023/08/01 11:31:00;;;;;;;3.00;2.70;;;21.00;73.60;;;;;;5071563;28;20154;-84
2023/08/01 11:33:26;;;;;;;2.55;2.35;;;21.00;73.80;;;;;;5054987;28;20165;-85
2023/08/01 11:35:58;;;;;;;2.60;2.20;;;21.00;73.90;;;;;;5054838;28;20186;-86
2023/08/01 11:38:26;;;;;;;2.13;2.03;;;21.00;73.80;;;;;;5087243;28;20189;-84
2023/08/01 11:40:51;;;;;;;2.70;2.38;;;21.00;73.70;;;;;;5054757;28;20216;-84
2023/08/01 11:43:17;;;;;;;2.72;2.03;;;21.00;73.60;;;;;;5054858;28;20174;-85
2023/08/01 11:45:51;;;;;;;2.42;2.20;;;21.00;73.30;;;;;;5055023;28;20159;-85
2023/08/01 11:48:18;;;;;;;2.22;2.03;;;21.10;73.40;;;;;;5055050;28;20207;-86
2023/08/01 11:50:44;;;;;;;2.45;2.22;;;21.00;73.30;;;;;;5054872;28;20220;-85
2023/08/01 11:53:19;;;;;;;2.40;2.20;;;21.00;73.20;;;;;;5055002;28;20539;-86
2023/08/01 11:55:45;;;;;;;3.65;1.90;;;21.10;73.20;;;;;;5054313;28;20288;-87
2023/08/01 11:58:13;;;;;;;2.63;2.00;;;21.10;72.90;;;;;;5053970;28;20197;-85
2023/08/01 12:00:40;;;;;;;2.88;2.00;;;21.10;72.80;;;;;;5053928;28;20178;-84
2023/08/01 12:03:12;;;;;;;2.33;2.13;;;21.10;72.60;;;;;;5054029;28;20300;-87
2023/08/01 12:05:38;;;;;;;2.33;2.08;;;21.00;72.50;;;;;;5054047;28;20154;-85
2023/08/01 12:08:16;;;;;;;1.90;1.80;;;21.00;72.20;;;;;;5053861;28;20168;-86
2023/08/01 12:10:44;;;;;;;2.55;2.15;;;21.10;72.40;;;;;;5054980;28;20232;-84
2023/08/01 12:13:25;;;;;;;2.10;1.98;;;21.10;72.60;;;;;;5053718;28;20216;-86
2023/08/01 12:15:52;;;;;;;2.50;2.10;;;21.10;72.60;;;;;;5076095;28;20647;-85
2023/08/01 12:18:27;;;;;;;3.05;2.05;;;21.10;72.70;;;;;;5076590;28;20709;-87
2023/08/01 12:20:53;;;;;;;2.38;2.17;;;21.10;72.70;;;;;;5093278;28;20172;-85
2023/08/01 12:23:19;;;;;;;2.80;2.25;;;21.10;72.70;;;;;;5076149;28;20259;-85
2023/08/01 12:25:46;;;;;;;2.47;2.28;;;21.10;72.60;;;;;;5076374;28;20689;-86
2023/08/01 12:28:13;;;;;;;2.20;2.00;;;21.10;72.60;;;;;;5076285;28;20177;-87
2023/08/01 12:30:41;;;;;;;2.40;2.20;;;21.10;72.60;;;;;;5076105;28;20186;-87
2023/08/01 12:33:08;;;;;;;2.50;2.30;;;21.20;72.60;;;;;;5076285;28;20712;-85
2023/08/01 12:35:34;;;;;;;2.40;2.17;;;21.10;72.50;;;;;;5075849;28;20231;-86
2023/08/01 12:38:00;;;;;;;2.35;2.15;;;21.10;72.70;;;;;;5075978;28;20173;-87
2023/08/01 12:40:28;;;;;;;2.63;2.42;;;21.10;72.70;;;;;;5075851;28;20746;-85
2023/08/01 12:42:54;;;;;;;3.35;2.17;;;21.20;72.50;;;;;;5075790;28;20213;-87
2023/08/01 12:45:20;;;;;;;2.50;2.30;;;21.10;72.50;;;;;;5092776;28;20161;-86
2023/08/01 12:47:46;;;;;;;2.45;2.25;;;21.10;72.50;;;;;;5092579;28;20173;-86